Time;durP1;ratioP1;P1;durP2;ratioP2;P2;SDS_P1;SDS_P2;PMS_P1;PMS_P2;Temp;Humidity;BMP_temperature;BMP_pressure;BME280_temperature;BME280_humidity;BME280_pressure;Samples;Min_cycle;Max_cycle;Signal;HPM_P1;HPM_P2
2021/01/04 00:02:20;;;;;;;11.38;9.38;;;;;;;10.51;53.85;100460.92;1708275;80;21634;-67
2021/01/04 00:05:31;;;;;;;12.30;9.63;;;;;;;10.51;53.86;100466.23;1748089;80;21196;-67
2021/01/04 00:08:44;;;;;;;12.70;9.70;;;;;;;10.50;53.88;100468.53;1726236;82;21128;-69
2021/01/04 00:11:37;;;;;;;13.37;9.70;;;;;;;10.47;53.89;100468.34;1725397;82;21151;-69
2021/01/04 00:14:33;;;;;;;11.77;9.53;;;;;;;10.45;53.92;100465.48;1768645;80;21151;-69
2021/01/04 00:17:21;;;;;;;11.63;9.40;;;;;;;10.44;53.97;100464.65;1756008;80;21860;-69
2021/01/04 00:20:26;;;;;;;12.37;10.28;;;;;;;10.43;53.98;100469.63;1755716;80;21191;-68
2021/01/04 00:23:15;;;;;;;11.25;9.30;;;;;;;10.43;53.99;100470.47;1739122;80;21120;-68
2021/01/04 00:25:56;;;;;;;12.13;9.80;;;;;;;10.43;53.98;100461.67;1759016;80;21159;-68
2021/01/04 00:28:27;;;;;;;13.48;10.10;;;;;;;10.42;54.00;100462.14;1755717;81;21127;-68
2021/01/04 00:31:15;;;;;;;13.25;10.85;;;;;;;10.43;54.01;100463.82;1769450;80;22352;-69
2021/01/04 00:33:51;;;;;;;13.75;10.38;;;;;;;10.43;54.01;100465.66;1725036;82;21580;-68
2021/01/04 00:36:33;;;;;;;13.53;10.50;;;;;;;10.42;54.01;100470.11;1754418;80;21148;-67
2021/01/04 00:39:31;;;;;;;13.83;10.58;;;;;;;10.42;54.01;100460.81;1767397;80;21136;-68
2021/01/04 00:42:13;;;;;;;14.55;10.38;;;;;;;10.43;53.98;100466.98;1761018;80;21144;-68
2021/01/04 00:45:11;;;;;;;12.78;9.83;;;;;;;10.44;54.00;100461.99;1757011;80;21368;-66
2021/01/04 00:48:02;;;;;;;13.10;10.68;;;;;;;10.43;54.01;100460.34;1714999;81;21185;-68
2021/01/04 00:51:25;;;;;;;12.85;10.43;;;;;;;10.41;54.01;100455.17;1716937;81;21301;-68
2021/01/04 00:54:00;;;;;;;12.93;9.20;;;;;;;10.47;54.04;100461.70;1852465;77;28704;-69
2021/01/04 00:56:51;;;;;;;14.68;10.63;;;;;;;10.40;54.05;100460.63;1849260;77;21117;-69
2021/01/04 00:59:44;;;;;;;15.20;11.15;;;;;;;10.39;54.05;100462.45;1849205;77;21370;-67
2021/01/04 01:02:29;;;;;;;15.23;11.38;;;;;;;10.41;54.06;100473.77;1849092;77;21116;-69
2021/01/04 01:05:28;;;;;;;13.18;10.35;;;;;;;10.40;54.05;100466.77;1842823;77;21547;-67
2021/01/04 01:08:10;;;;;;;14.03;10.55;;;;;;;10.41;54.07;100461.81;1842198;77;21183;-68
2021/01/04 01:10:55;;;;;;;13.43;10.82;;;;;;;10.40;54.08;100466.77;1849168;77;21131;-68
2021/01/04 01:13:47;;;;;;;16.23;11.95;;;;;;;10.41;54.08;100468.92;1848902;77;21361;-68
2021/01/04 01:16:41;;;;;;;14.87;11.45;;;;;;;10.41;54.08;100465.80;1848926;77;21139;-69
2021/01/04 01:19:32;;;;;;;14.40;10.58;;;;;;;10.41;54.07;100468.45;1849111;77;21159;-69
2021/01/04 01:22:00;;;;;;;14.60;10.95;;;;;;;10.41;54.08;100460.48;1849156;77;21155;-67
2021/01/04 01:24:31;;;;;;;14.45;10.88;;;;;;;10.41;54.08;100456.50;1824020;77;21135;-69
2021/01/04 01:27:36;;;;;;;13.83;10.15;;;;;;;10.41;54.06;100454.31;1823725;77;21196;-69
2021/01/04 01:30:20;;;;;;;13.95;10.88;;;;;;;10.43;54.05;100448.38;1831265;77;21756;-69
2021/01/04 01:33:12;;;;;;;13.55;10.75;;;;;;;10.42;54.03;100442.72;1818682;77;21107;-69
2021/01/04 01:36:04;;;;;;;13.83;10.48;;;;;;;10.41;54.07;100431.73;1809806;77;21164;-69
2021/01/04 01:39:30;;;;;;;13.80;10.85;;;;;;;10.42;54.04;100434.25;1823705;77;21148;-70
2021/01/04 01:42:30;;;;;;;12.82;9.98;;;;;;;10.42;54.04;100444.05;1824326;77;21154;-69
2021/01/04 01:45:28;;;;;;;15.72;12.10;;;;;;;10.41;54.06;100442.36;1823661;77;21837;-69
2021/01/04 01:48:23;;;;;;;16.48;11.53;;;;;;;10.40;54.09;100441.53;1823702;77;21131;-69
2021/01/04 01:51:11;;;;;;;13.50;10.28;;;;;;;10.38;54.10;100438.69;1842464;77;21556;-69
2021/01/04 01:54:30;;;;;;;14.13;10.95;;;;;;;10.39;54.13;100449.64;1845251;77;21132;-68
2021/01/04 01:57:12;;;;;;;14.20;10.80;;;;;;;10.38;54.13;100447.48;1823508;77;21359;-68
2021/01/04 02:00:08;;;;;;;14.40;11.60;;;;;;;10.38;54.17;100454.63;1823669;77;21119;-68
2021/01/04 02:03:10;;;;;;;14.90;10.40;;;;;;;10.37;54.14;100443.17;1823721;77;21156;-69
2021/01/04 02:06:17;;;;;;;15.32;11.88;;;;;;;10.37;54.17;100447.16;1823124;77;21136;-68
2021/01/04 02:08:49;;;;;;;12.73;10.43;;;;;;;10.37;54.17;100428.57;1832064;77;21584;-68
2021/01/04 02:11:49;;;;;;;12.05;9.60;;;;;;;10.37;54.19;100438.33;1823031;77;21400;-69
2021/01/04 02:14:33;;;;;;;13.38;10.63;;;;;;;10.37;54.16;100439.19;1822814;77;21170;-68
2021/01/04 02:17:37;;;;;;;13.15;10.48;;;;;;;10.38;54.17;100428.06;1828007;77;21160;-70
2021/01/04 02:20:43;;;;;;;15.43;11.03;;;;;;;10.37;54.18;100424.59;1807332;78;21186;-68
2021/01/04 02:23:37;;;;;;;15.10;10.88;;;;;;;10.37;54.18;100431.69;1810376;78;21103;-68
2021/01/04 02:26:23;;;;;;;15.08;11.50;;;;;;;10.37;54.17;100436.53;1814663;78;21416;-69
2021/01/04 02:29:14;;;;;;;13.38;10.82;;;;;;;10.37;54.17;100437.87;1794001;78;21170;-69
2021/01/04 02:31:58;;;;;;;15.58;10.90;;;;;;;10.40;54.19;100441.53;1826197;77;28206;-68
2021/01/04 02:34:30;;;;;;;11.97;10.53;;;;;;;10.37;54.18;100433.87;1824899;77;21734;-68
2021/01/04 02:36:58;;;;;;;13.98;10.35;;;;;;;10.39;54.16;100451.83;1848528;77;21355;-70
2021/01/04 02:40:00;;;;;;;12.37;9.83;;;;;;;10.41;54.14;100447.67;1857399;77;21168;-68
2021/01/04 02:42:32;;;;;;;14.23;10.98;;;;;;;10.42;54.11;100453.34;1846211;77;21013;-69
2021/01/04 02:45:04;;;;;;;13.75;10.65;;;;;;;10.41;54.10;100456.50;1857453;77;21132;-69
2021/01/04 02:48:10;;;;;;;13.48;11.10;;;;;;;10.42;54.09;100450.19;1857601;77;21117;-68
2021/01/04 02:51:09;;;;;;;14.28;10.58;;;;;;;10.44;54.07;100454.02;1855295;76;21366;-67
2021/01/04 02:54:06;;;;;;;13.53;10.72;;;;;;;10.42;54.08;100448.86;1838876;77;21141;-68
2021/01/04 02:56:48;;;;;;;13.18;9.65;;;;;;;10.43;54.08;100450.54;1857561;77;21069;-69
2021/01/04 02:59:50;;;;;;;15.05;11.40;;;;;;;10.42;54.06;100455.50;1847453;77;21399;-68
2021/01/04 03:02:36;;;;;;;13.78;10.43;;;;;;;10.43;54.07;100461.67;1842517;77;21132;-68
2021/01/04 03:05:09;;;;;;;13.95;10.78;;;;;;;10.43;54.06;100450.54;1856857;77;21612;-69
2021/01/04 03:07:36;;;;;;;12.18;9.88;;;;;;;10.42;54.04;100448.86;1857604;77;21588;-69
2021/01/04 03:10:16;;;;;;;11.93;8.73;;;;;;;10.43;54.05;100450.54;1857332;77;21546;-69
2021/01/04 03:12:43;;;;;;;12.73;9.78;;;;;;;10.45;54.04;100454.85;1857398;77;21116;-69
2021/01/04 03:15:26;;;;;;;13.10;10.50;;;;;;;10.46;54.04;100453.87;1823305;77;21122;-70
2021/01/04 03:18:02;;;;;;;12.65;9.73;;;;;;;10.46;54.02;100453.38;1839654;77;21252;-69
2021/01/04 03:20:29;;;;;;;11.60;10.13;;;;;;;10.47;54.02;100458.19;1793076;78;21465;-69
2021/01/04 03:22:57;;;;;;;12.68;10.38;;;;;;;10.48;53.99;100450.58;1835598;76;21556;-68
2021/01/04 03:25:59;;;;;;;13.45;10.18;;;;;;;10.48;53.97;100443.94;1828269;76;21166;-69
2021/01/04 03:28:30;;;;;;;12.90;9.95;;;;;;;10.50;53.94;100447.28;1806622;76;21198;-68
2021/01/04 03:30:58;;;;;;;11.18;9.10;;;;;;;10.50;53.92;100441.46;1843158;77;21551;-68
2021/01/04 03:33:25;;;;;;;12.68;10.00;;;;;;;10.51;53.93;100433.02;1823556;77;21509;-70
2021/01/04 03:35:53;;;;;;;12.93;10.28;;;;;;;10.52;53.88;100441.32;1857292;77;21249;-69
2021/01/04 03:38:21;;;;;;;12.80;9.68;;;;;;;10.52;53.86;100441.32;1857247;77;21117;-68
2021/01/04 03:40:49;;;;;;;11.22;9.18;;;;;;;10.53;53.85;100442.50;1857300;77;21245;-68
2021/01/04 03:43:17;;;;;;;10.60;9.08;;;;;;;10.54;53.85;100430.88;1856634;77;21165;-68
2021/01/04 03:45:44;;;;;;;11.73;9.65;;;;;;;10.54;53.82;100430.05;1856808;77;21136;-69
2021/01/04 03:48:12;;;;;;;12.95;10.58;;;;;;;10.55;53.79;100432.56;1856677;77;21148;-68
2021/01/04 03:50:39;;;;;;;12.60;10.18;;;;;;;10.55;53.77;100431.23;1841059;76;21840;-68
2021/01/04 03:53:06;;;;;;;12.53;9.93;;;;;;;10.57;53.77;100420.45;1855085;77;21132;-69
2021/01/04 03:55:37;;;;;;;11.28;9.03;;;;;;;10.57;53.76;100423.11;1856791;77;21376;-67
2021/01/04 03:58:03;;;;;;;11.15;9.18;;;;;;;10.57;53.72;100419.13;1856842;77;21171;-67
2021/01/04 04:00:31;;;;;;;13.10;9.88;;;;;;;10.58;53.70;100417.63;1856617;77;21097;-68
2021/01/04 04:02:58;;;;;;;13.38;10.65;;;;;;;10.59;53.72;100427.78;1856803;76;21191;-68
2021/01/04 04:05:26;;;;;;;11.55;9.28;;;;;;;10.59;53.69;100427.28;1822828;78;22123;-67
2021/01/04 04:07:55;;;;;;;13.62;10.15;;;;;;;10.60;53.67;100425.45;1838668;76;23703;-68
2021/01/04 04:10:23;;;;;;;11.35;9.65;;;;;;;10.60;53.64;100424.13;1856737;77;21571;-68
2021/01/04 04:12:50;;;;;;;12.15;10.35;;;;;;;10.61;53.64;100421.83;1856839;77;21164;-70
2021/01/04 04:15:19;;;;;;;11.90;10.08;;;;;;;10.61;53.65;100419.17;1856669;77;21108;-68
2021/01/04 04:17:47;;;;;;;11.08;9.63;;;;;;;10.61;53.63;100419.17;1851384;77;21600;-68
2021/01/04 04:20:21;;;;;;;13.78;10.65;;;;;;;10.61;53.63;100419.99;1853887;77;23673;-68
2021/01/04 04:22:53;;;;;;;11.48;9.00;;;;;;;10.61;53.62;100414.67;1856655;77;21640;-69
2021/01/04 04:25:23;;;;;;;10.97;9.07;;;;;;;10.61;53.62;100412.52;1839056;77;21154;-69
2021/01/04 04:27:52;;;;;;;11.15;9.38;;;;;;;10.60;53.61;100414.35;1856848;77;21449;-69
2021/01/04 04:30:22;;;;;;;14.40;10.43;;;;;;;10.60;53.63;100411.70;1855324;77;21101;-69
2021/01/04 04:32:54;;;;;;;10.80;9.20;;;;;;;10.60;53.64;100406.85;1857234;77;22037;-69
2021/01/04 04:35:22;;;;;;;10.88;9.08;;;;;;;10.59;53.66;100410.02;1834235;77;21154;-68
2021/01/04 04:37:49;;;;;;;11.57;9.88;;;;;;;10.59;53.64;100417.98;1839964;77;22151;-68
2021/01/04 04:40:22;;;;;;;11.60;9.15;;;;;;;10.60;53.67;100408.18;1834925;77;21534;-68
2021/01/04 04:42:57;;;;;;;11.07;9.57;;;;;;;10.59;53.66;100410.52;1831553;77;21144;-68
2021/01/04 04:45:25;;;;;;;11.53;9.20;;;;;;;10.59;53.63;100406.02;1816776;78;21827;-69
2021/01/04 04:48:34;;;;;;;11.18;9.68;;;;;;;10.59;53.65;100408.68;1844592;75;21169;-69
2021/01/04 04:51:20;;;;;;;13.28;10.10;;;;;;;10.59;53.65;100418.48;1744130;81;21223;-68
2021/01/04 04:54:15;;;;;;;12.65;8.73;;;;;;;10.58;53.67;100398.20;1785605;80;21625;-68
2021/01/04 04:57:25;;;;;;;12.45;8.85;;;;;;;10.56;53.69;100393.53;1858569;75;21139;-69
2021/01/04 05:00:22;;;;;;;12.07;9.90;;;;;;;10.55;53.71;100401.18;1848046;77;21435;-68
2021/01/04 05:03:07;;;;;;;11.20;8.78;;;;;;;10.52;53.77;100417.41;1856003;77;21594;-68
2021/01/04 05:06:06;;;;;;;11.60;9.25;;;;;;;10.51;53.84;100407.78;1838590;77;21175;-69
2021/01/04 05:09:03;;;;;;;10.28;8.75;;;;;;;10.50;53.85;100403.45;1838621;77;22158;-69
2021/01/04 05:11:34;;;;;;;10.98;8.73;;;;;;;10.49;53.87;100407.08;1829768;77;21643;-69
2021/01/04 05:14:05;;;;;;;10.00;8.98;;;;;;;10.47;53.88;100395.30;1812917;77;21613;-69
2021/01/04 05:16:47;;;;;;;10.65;8.45;;;;;;;10.47;53.90;100393.11;1816983;78;21115;-70
2021/01/04 05:19:38;;;;;;;12.00;9.25;;;;;;;10.48;53.90;100402.77;1812019;78;21220;-68
2021/01/04 05:22:31;;;;;;;12.50;8.58;;;;;;;10.48;53.90;100400.94;1786820;78;21846;-70
2021/01/04 05:25:47;;;;;;;10.68;8.83;;;;;;;10.47;53.92;100396.63;1843693;77;21591;-68
2021/01/04 05:28:53;;;;;;;11.48;9.43;;;;;;;10.47;53.92;100413.03;1842457;77;22874;-69
2021/01/04 05:32:01;;;;;;;10.38;8.45;;;;;;;10.46;53.95;100412.70;1829836;77;21195;-68
2021/01/04 05:34:53;;;;;;;10.28;8.43;;;;;;;10.44;54.00;100411.52;1837048;77;21116;-68
2021/01/04 05:37:56;;;;;;;11.80;8.73;;;;;;;10.42;54.03;100419.63;1825191;78;21142;-69
2021/01/04 05:40:55;;;;;;;13.43;10.30;;;;;;;10.41;54.07;100411.34;1813548;77;21110;-71
2021/01/04 05:44:01;;;;;;;11.85;8.60;;;;;;;10.41;54.10;100423.77;1836777;77;21774;-69
2021/01/04 05:46:49;;;;;;;10.98;8.48;;;;;;;10.39;54.12;100429.25;1839873;77;21179;-68
2021/01/04 05:49:45;;;;;;;10.63;8.68;;;;;;;10.38;54.13;100422.25;1824427;77;21131;-69
2021/01/04 05:52:17;;;;;;;10.82;8.53;;;;;;;10.39;54.17;100423.08;1846030;77;21133;-69
2021/01/04 05:54:44;;;;;;;10.63;9.33;;;;;;;10.38;54.16;100428.89;1830305;76;21233;-67
2021/01/04 05:57:16;;;;;;;10.70;9.13;;;;;;;10.39;54.17;100437.69;1822435;77;22173;-69
2021/01/04 05:59:47;;;;;;;10.25;8.80;;;;;;;10.40;54.14;100426.92;1844619;77;21133;-68
2021/01/04 06:02:30;;;;;;;10.80;8.00;;;;;;;10.42;54.13;100434.75;1844234;77;21184;-67
2021/01/04 06:05:12;;;;;;;10.82;8.18;;;;;;;10.42;54.10;100432.09;1811601;77;21099;-69
2021/01/04 06:07:42;;;;;;;9.85;8.15;;;;;;;10.43;54.11;100433.27;1821988;77;21151;-68
2021/01/04 06:10:30;;;;;;;10.30;8.63;;;;;;;10.43;54.09;100430.62;1835877;77;21361;-68
2021/01/04 06:13:01;;;;;;;10.93;8.20;;;;;;;10.45;54.09;100438.44;1820098;77;21575;-68
2021/01/04 06:15:35;;;;;;;13.05;9.55;;;;;;;10.46;54.05;100424.66;1832762;77;21158;-67
2021/01/04 06:18:13;;;;;;;11.15;8.93;;;;;;;10.46;54.04;100420.17;1841560;77;21650;-69
2021/01/04 06:20:55;;;;;;;9.85;8.08;;;;;;;10.47;53.99;100421.86;1788202;78;21165;-67
2021/01/04 06:23:33;;;;;;;9.40;7.90;;;;;;;10.48;54.00;100426.17;1815759;76;21192;-68
2021/01/04 06:26:06;;;;;;;9.18;7.97;;;;;;;10.48;53.97;100434.14;1815010;76;21198;-68
2021/01/04 06:28:57;;;;;;;10.20;8.23;;;;;;;10.53;54.00;100430.55;1765570;79;29514;-68
2021/01/04 06:31:46;;;;;;;9.75;7.85;;;;;;;10.51;53.98;100437.02;1759219;79;21203;-67
2021/01/04 06:34:29;;;;;;;8.70;7.67;;;;;;;10.50;53.95;100438.81;1767795;79;21436;-67
2021/01/04 06:37:10;;;;;;;9.93;8.50;;;;;;;10.51;53.93;100444.98;1773271;79;21163;-67
2021/01/04 06:39:37;;;;;;;9.70;7.90;;;;;;;10.50;53.95;100437.48;1776290;79;21135;-67
2021/01/04 06:42:18;;;;;;;10.18;8.18;;;;;;;10.51;53.95;100439.67;1773273;79;21133;-67
2021/01/04 06:45:13;;;;;;;8.95;7.30;;;;;;;10.52;53.93;100442.65;1781518;79;21163;-68
2021/01/04 06:48:04;;;;;;;9.00;7.20;;;;;;;10.51;53.94;100444.48;1775878;79;23575;-67
2021/01/04 06:50:43;;;;;;;10.82;7.53;;;;;;;10.51;53.95;100456.94;1770624;79;21033;-67
2021/01/04 06:53:40;;;;;;;7.75;6.35;;;;;;;10.51;53.94;100458.27;1772722;79;21174;-67
2021/01/04 06:56:30;;;;;;;9.48;7.80;;;;;;;10.51;53.98;100459.09;1756949;79;21410;-67
2021/01/04 06:59:05;;;;;;;9.18;7.67;;;;;;;10.50;53.95;100453.92;1775423;79;21202;-67
2021/01/04 07:02:06;;;;;;;8.28;7.30;;;;;;;10.51;53.95;100450.29;1764923;79;21219;-67
2021/01/04 07:04:59;;;;;;;9.10;7.60;;;;;;;10.52;53.95;100449.29;1734919;79;21674;-66
2021/01/04 07:08:13;;;;;;;10.18;7.90;;;;;;;10.51;53.93;100443.15;1782031;80;21506;-68
2021/01/04 07:11:17;;;;;;;9.58;7.45;;;;;;;10.51;53.95;100435.68;1762886;80;21166;-67
2021/01/04 07:14:05;;;;;;;9.48;7.35;;;;;;;10.50;53.96;100441.46;1768564;80;26671;-69
2021/01/04 07:17:06;;;;;;;8.50;6.78;;;;;;;10.49;53.97;100438.95;1790912;79;21388;-67
2021/01/04 07:19:45;;;;;;;8.85;6.97;;;;;;;10.49;54.00;100427.00;1761689;79;21238;-68
2021/01/04 07:22:33;;;;;;;8.08;6.60;;;;;;;10.47;54.00;100427.17;1769311;79;21140;-67
2021/01/04 07:25:18;;;;;;;7.58;6.05;;;;;;;10.49;54.02;100430.98;1766452;79;21185;-67
2021/01/04 07:28:18;;;;;;;9.88;7.45;;;;;;;10.49;54.02;100434.50;1771627;79;21654;-66
2021/01/04 07:31:00;;;;;;;8.40;6.58;;;;;;;10.49;54.01;100435.83;1763342;79;23539;-68
2021/01/04 07:33:43;;;;;;;9.10;7.35;;;;;;;10.50;54.01;100432.67;1759860;80;21219;-69
2021/01/04 07:36:42;;;;;;;8.73;7.00;;;;;;;10.49;54.03;100433.64;1770787;79;21187;-69
2021/01/04 07:39:32;;;;;;;8.38;6.60;;;;;;;10.50;54.02;100434.82;1779525;79;21591;-68
2021/01/04 07:42:24;;;;;;;7.78;6.55;;;;;;;10.51;54.01;100434.36;1778830;79;21151;-68
2021/01/04 07:45:34;;;;;;;7.42;5.95;;;;;;;10.51;54.02;100433.02;1761090;79;21214;-68
2021/01/04 07:48:29;;;;;;;7.87;6.78;;;;;;;10.52;54.00;100436.01;1776138;79;21116;-68
2021/01/04 07:51:22;;;;;;;9.10;6.67;;;;;;;10.51;53.99;100430.37;1774247;79;21159;-70
2021/01/04 07:54:10;;;;;;;7.92;6.80;;;;;;;10.51;54.00;100435.68;1761082;79;21180;-67
2021/01/04 07:57:03;;;;;;;9.20;6.87;;;;;;;10.53;54.02;100437.69;1761720;80;21161;-68
2021/01/04 08:00:06;;;;;;;9.35;7.55;;;;;;;10.52;54.00;100439.48;1772091;79;22952;-67
2021/01/04 08:03:24;;;;;;;8.38;7.12;;;;;;;10.52;54.00;100444.80;1771399;80;21167;-66
2021/01/04 08:06:22;;;;;;;9.43;7.95;;;;;;;10.53;53.99;100445.66;1764901;79;21626;-67
2021/01/04 08:09:11;;;;;;;7.83;6.55;;;;;;;10.53;54.00;100446.48;1765293;79;21181;-69
2021/01/04 08:11:55;;;;;;;8.85;7.00;;;;;;;10.53;54.02;100453.63;1748286;80;21210;-68
2021/01/04 08:15:10;;;;;;;8.20;6.97;;;;;;;10.54;54.04;100449.97;1761246;79;21462;-67
2021/01/04 08:17:51;;;;;;;9.20;6.55;;;;;;;10.55;54.03;100454.31;1769229;79;21566;-68
2021/01/04 08:20:19;;;;;;;8.78;7.22;;;;;;;10.56;54.02;100452.81;1750752;81;21215;-69
2021/01/04 08:23:08;;;;;;;8.88;7.47;;;;;;;10.56;54.02;100458.13;1774038;79;21216;-69
2021/01/04 08:26:01;;;;;;;8.48;6.72;;;;;;;10.59;53.99;100464.48;1787128;79;21166;-69
2021/01/04 08:28:42;;;;;;;8.45;6.60;;;;;;;10.61;53.95;100469.65;1756619;79;21399;-67
2021/01/04 08:31:42;;;;;;;8.05;6.40;;;;;;;10.62;53.95;100459.34;1773159;79;21224;-67
2021/01/04 08:34:19;;;;;;;7.95;6.58;;;;;;;10.63;53.93;100466.34;1769565;79;21634;-69
2021/01/04 08:36:58;;;;;;;8.43;7.03;;;;;;;10.63;53.91;100456.55;1757901;81;21118;-67
2021/01/04 08:39:31;;;;;;;8.98;6.85;;;;;;;10.65;53.91;100458.23;1762841;79;21047;-69
2021/01/04 08:42:10;;;;;;;8.00;7.12;;;;;;;10.66;53.88;100459.89;1743517;81;21214;-67
2021/01/04 08:47:51;;;;;;;8.10;7.22;;;;;;;10.73;53.86;100452.98;1823964;76;28656;-67
2021/01/04 08:50:33;;;;;;;8.50;6.55;;;;;;;10.70;53.85;100459.45;1807562;78;21258;-69
2021/01/04 08:53:17;;;;;;;8.55;6.50;;;;;;;10.72;53.80;100456.14;1767612;77;22455;-69
2021/01/04 08:55:45;;;;;;;8.98;7.22;;;;;;;10.75;53.77;100462.97;1787106;78;21583;-67
2021/01/04 08:58:25;;;;;;;8.83;7.05;;;;;;;10.75;53.73;100457.16;1785478;79;21668;-67
2021/01/04 09:01:02;;;;;;;8.73;7.67;;;;;;;10.78;53.70;100456.86;1784772;78;21198;-69
2021/01/04 09:03:32;;;;;;;8.63;7.25;;;;;;;10.79;53.66;100447.88;1764688;79;21643;-67
2021/01/04 09:06:32;;;;;;;8.73;7.42;;;;;;;10.80;53.64;100450.90;1779850;78;22914;-68
2021/01/04 09:09:19;;;;;;;8.43;6.80;;;;;;;10.82;53.63;100456.89;1798934;77;21186;-68
2021/01/04 09:12:24;;;;;;;9.30;7.47;;;;;;;10.83;53.62;100464.37;1764658;79;21180;-68
2021/01/04 09:14:58;;;;;;;9.33;7.80;;;;;;;10.82;53.59;100462.21;1755288;79;21155;-69
2021/01/04 09:18:01;;;;;;;9.03;7.33;;;;;;;10.84;53.60;100447.45;1728076;81;21190;-68
2021/01/04 09:20:38;;;;;;;9.70;7.15;;;;;;;10.85;53.59;100452.27;1743440;79;21436;-68
2021/01/04 09:23:29;;;;;;;8.45;7.40;;;;;;;10.83;53.60;100445.77;1744681;79;21186;-67
2021/01/04 09:26:05;;;;;;;9.35;7.17;;;;;;;10.85;53.58;100450.93;1754508;80;21214;-68
2021/01/04 09:28:49;;;;;;;8.20;6.87;;;;;;;10.85;53.58;100450.43;1751769;80;21166;-68
2021/01/04 09:31:17;;;;;;;;;;;;;;;10.85;53.58;100441.13;1720437;82;21634;-67
2021/01/04 09:33:51;;;;;;;9.48;7.47;;;;;;;10.86;53.57;100438.83;1760744;80;21212;-68
2021/01/04 09:36:20;;;;;;;9.05;7.10;;;;;;;10.80;53.68;100444.75;1751366;79;21162;-68
2021/01/04 09:38:49;;;;;;;10.00;7.25;;;;;;;10.81;53.65;100435.28;1753821;79;21218;-69
2021/01/04 09:41:16;;;;;;;9.75;8.10;;;;;;;10.84;53.62;100435.48;1796836;77;21586;-67
2021/01/04 09:43:44;;;;;;;8.20;7.05;;;;;;;10.86;53.61;100434.84;1781668;77;21619;-69
2021/01/04 09:46:23;;;;;;;9.45;7.70;;;;;;;10.90;53.58;100442.02;1777469;79;21354;-68
2021/01/04 09:49:03;;;;;;;9.48;8.25;;;;;;;10.91;53.55;100439.69;1780932;79;21172;-69
2021/01/04 09:51:39;;;;;;;9.40;7.85;;;;;;;10.91;53.54;100439.18;1775903;79;21162;-69
2021/01/04 09:54:08;;;;;;;8.65;7.25;;;;;;;10.93;53.52;100435.91;1778662;79;21126;-69
2021/01/04 09:56:37;;;;;;;8.98;7.67;;;;;;;10.94;53.50;100434.07;1775471;79;21186;-69
2021/01/04 09:59:25;;;;;;;9.28;7.72;;;;;;;10.95;53.49;100433.92;1775359;79;21415;-68
2021/01/04 10:02:01;;;;;;;8.80;7.37;;;;;;;10.97;53.44;100438.59;1781103;79;21220;-68
2021/01/04 10:04:37;;;;;;;9.00;7.05;;;;;;;10.97;53.43;100435.94;1791895;79;21185;-67
2021/01/04 10:07:07;;;;;;;10.40;8.45;;;;;;;11.00;53.41;100440.09;1788506;78;21167;-68
2021/01/04 10:09:39;;;;;;;9.13;7.60;;;;;;;11.00;53.39;100427.63;1741674;80;21161;-70
2021/01/04 10:12:08;;;;;;;10.23;8.50;;;;;;;11.01;53.38;100426.66;1743712;80;21399;-70
2021/01/04 10:14:35;;;;;;;8.65;7.72;;;;;;;11.02;53.36;100433.63;1794694;79;21146;-68
2021/01/04 10:17:03;;;;;;;10.35;8.20;;;;;;;11.04;53.35;100431.33;1786534;79;21190;-67
2021/01/04 10:19:35;;;;;;;10.18;8.78;;;;;;;11.05;53.35;100430.31;1770476;80;21157;-69
2021/01/04 10:22:08;;;;;;;9.55;7.95;;;;;;;11.05;53.31;100428.52;1777767;78;21180;-68
2021/01/04 10:24:48;;;;;;;9.63;8.15;;;;;;;11.06;53.30;100423.52;1762267;78;21386;-69
2021/01/04 10:27:18;;;;;;;12.07;8.10;;;;;;;11.08;53.28;100420.21;1767441;78;21134;-68
2021/01/04 10:29:52;;;;;;;10.05;8.00;;;;;;;11.08;53.27;100426.86;1793070;79;21200;-68
2021/01/04 10:32:26;;;;;;;10.30;8.63;;;;;;;11.08;53.28;100418.06;1776125;79;21130;-68
2021/01/04 10:34:54;;;;;;;10.35;8.53;;;;;;;11.09;53.26;100419.23;1783396;79;21124;-69
2021/01/04 10:37:47;;;;;;;10.80;9.18;;;;;;;11.10;53.24;100418.73;1781888;79;21187;-69
2021/01/04 10:40:18;;;;;;;10.40;8.45;;;;;;;11.11;53.24;100413.77;1787793;79;21125;-68
2021/01/04 10:42:47;;;;;;;9.88;8.23;;;;;;;11.11;53.23;100421.75;1788693;79;21201;-68
2021/01/04 10:45:19;;;;;;;9.73;8.33;;;;;;;11.11;53.24;100421.75;1794146;79;21186;-68
2021/01/04 10:47:52;;;;;;;10.40;8.87;;;;;;;11.10;53.20;100420.89;1773664;79;21139;-68
2021/01/04 10:50:40;;;;;;;11.43;8.03;;;;;;;11.11;53.19;100417.77;1782243;79;21372;-70
2021/01/04 10:53:11;;;;;;;11.40;9.33;;;;;;;11.12;53.21;100424.23;1779297;79;21146;-68
2021/01/04 10:56:11;;;;;;;8.83;7.78;;;;;;;11.13;53.21;100425.09;1779399;78;21603;-69
2021/01/04 10:59:11;;;;;;;9.98;8.95;;;;;;;11.12;53.18;100427.39;1764762;79;21191;-67
2021/01/04 11:01:41;;;;;;;12.03;9.28;;;;;;;11.13;53.21;100426.41;1754506;81;21167;-68
2021/01/04 11:04:17;;;;;;;10.15;8.40;;;;;;;11.10;53.23;100427.54;1737104;80;21731;-68
2021/01/04 11:06:48;;;;;;;11.70;9.43;;;;;;;11.11;53.21;100437.20;1742637;80;21184;-69
2021/01/04 11:09:27;;;;;;;11.65;9.63;;;;;;;11.12;53.22;100437.52;1719376;81;21191;-70
2021/01/04 11:12:23;;;;;;;10.48;8.48;;;;;;;11.12;53.23;100429.55;1743977;81;21194;-71
2021/01/04 11:15:10;;;;;;;10.65;8.70;;;;;;;11.12;53.21;100428.22;1748780;80;21522;-68
2021/01/04 11:17:41;;;;;;;11.33;9.10;;;;;;;11.12;53.24;100426.89;1740854;80;22290;-68
2021/01/04 11:20:14;;;;;;;10.80;8.85;;;;;;;11.10;53.24;100416.91;1731752;81;21206;-67
2021/01/04 11:22:42;;;;;;;13.32;9.78;;;;;;;11.11;53.24;100425.23;1744324;81;21104;-67
2021/01/04 11:25:11;;;;;;;11.65;9.58;;;;;;;11.13;53.23;100424.58;1749124;80;21258;-68
2021/01/04 11:27:39;;;;;;;11.57;9.18;;;;;;;11.13;53.24;100424.58;1750247;80;21188;-68
2021/01/04 11:30:07;;;;;;;13.28;10.50;;;;;;;11.14;53.24;100427.56;1738836;80;21361;-65
2021/01/04 11:32:44;;;;;;;13.22;9.60;;;;;;;11.15;53.21;100420.45;1754043;80;21954;-66
2021/01/04 11:35:12;;;;;;;13.05;9.40;;;;;;;11.15;53.20;100417.78;1748183;80;21611;-67
2021/01/04 11:37:39;;;;;;;12.85;10.03;;;;;;;11.16;53.19;100407.00;1746650;80;21215;-69
2021/01/04 11:40:09;;;;;;;11.22;9.53;;;;;;;11.17;53.17;100407.83;1749198;80;21179;-68
2021/01/04 11:42:36;;;;;;;11.73;10.25;;;;;;;11.17;53.17;100399.84;1751992;80;21289;-67
2021/01/04 11:45:12;;;;;;;12.73;9.78;;;;;;;11.18;53.15;100401.50;1753268;80;21211;-67
2021/01/04 11:47:39;;;;;;;13.20;10.95;;;;;;;11.18;53.14;100397.04;1745365;80;21218;-67
2021/01/04 11:50:08;;;;;;;12.73;10.00;;;;;;;11.18;53.13;100399.70;1749700;80;21127;-66
2021/01/04 11:52:36;;;;;;;14.30;10.35;;;;;;;11.20;53.13;100400.84;1740169;80;21191;-67
2021/01/04 11:55:11;;;;;;;12.07;9.85;;;;;;;11.20;53.11;100394.20;1752030;80;21205;-66
2021/01/04 11:57:38;;;;;;;12.58;10.20;;;;;;;11.20;53.10;100399.05;1746114;80;21170;-68
2021/01/04 12:00:11;;;;;;;13.55;10.30;;;;;;;11.20;53.11;100399.52;1731013;81;21139;-70
2021/01/04 12:02:39;;;;;;;13.43;11.08;;;;;;;11.21;53.10;100406.02;1747409;80;21608;-67
2021/01/04 12:05:08;;;;;;;12.73;10.03;;;;;;;11.21;53.09;100411.84;1752413;80;21586;-66
2021/01/04 12:07:35;;;;;;;11.78;10.43;;;;;;;11.22;53.10;100409.50;1747287;80;22045;-68
2021/01/04 12:10:04;;;;;;;12.60;10.25;;;;;;;11.21;53.09;100414.00;1752871;80;21644;-67
2021/01/04 12:12:32;;;;;;;12.55;9.85;;;;;;;11.23;53.10;100424.98;1758415;80;21218;-69
2021/01/04 12:14:59;;;;;;;13.05;10.65;;;;;;;11.21;53.10;100421.97;1741952;80;21742;-66
2021/01/04 12:17:26;;;;;;;13.08;10.25;;;;;;;11.23;53.10;100421.00;1742311;80;21653;-68
2021/01/04 12:19:54;;;;;;;12.60;9.95;;;;;;;11.24;53.09;100421.32;1754268;80;23671;-69
2021/01/04 12:22:21;;;;;;;12.58;10.60;;;;;;;11.24;53.09;100419.99;1745777;80;21183;-67
2021/01/04 12:24:49;;;;;;;14.25;11.10;;;;;;;11.24;53.10;100421.32;1749643;80;21162;-69
2021/01/04 12:27:20;;;;;;;12.13;10.55;;;;;;;11.25;53.08;100421.67;1743982;80;21929;-69
2021/01/04 12:29:48;;;;;;;12.10;10.80;;;;;;;11.24;53.08;100423.48;1756469;80;21155;-68